Dimitris — SVA3557 — position and weather

sailwx.info

Track history (hours):
 
Tides and Currents Weather Stations Pressure Air Temp Water Temp Dewpoint Dewpoint Depression Visibility Wind Speed Wind Dir Waves Ship Positions

Dimitris

Last reported at 2018-Jun-24 06:46 UTC. Time now 2018-Jun-24 09:19 UTC.
Position N 38°11' E 024°07'.

Length 76 m; draft 2.4 m.

Type: Passenger vessel. MMSI: 239710200.

Date/timePositionNaut miles runAvg speedWind from/ knotsBaromVisibWave heightAir tempDewpointWater temp
2018-Jun-24 06:46N 38°11' E 024°07'410.4
2018-Jun-24 06:20N 38°11' E 024°12'5 2.6
2018-Jun-24 04:32N 38°11' E 024°06'110.7
2018-Jun-24 04:26N 38°11' E 024°08'0 0.0
2018-Jun-23 17:25N 38°11' E 024°08'1 0.4
2018-Jun-23 15:14N 38°11' E 024°06'0 0.0
2018-Jun-22 12:16N 38°11' E 024°06'1 0.5
2018-Jun-22 10:09N 38°11' E 024°08'1 1.0
2018-Jun-22 09:00N 38°11' E 024°06'2 1.4
2018-Jun-22 07:56N 38°11' E 024°08'1 1.2
2018-Jun-22 06:46N 38°11' E 024°06'0 0.1
2018-Jun-22 04:01N 38°11' E 024°07'011.3
2018-Jun-22 04:00N 38°11' E 024°07'1 0.1
2018-Jun-21 17:53N 38°11' E 024°08'1 1.1
2018-Jun-21 17:00N 38°11' E 024°07'1 0.8
2018-Jun-21 15:56N 38°11' E 024°08'0 0.2
2018-Jun-21 14:56N 38°11' E 024°07'1 0.4
2018-Jun-21 13:00N 38°11' E 024°07'0 0.1
2018-Jun-21 10:59N 38°11' E 024°07'1 0.0
2018-Jun-20 08:57N 38°11' E 024°07'4 5.4
2018-Jun-20 08:14N 38°11' E 024°12'410.0
2018-Jun-20 07:51N 38°11' E 024°08'1 0.8
2018-Jun-20 06:45N 38°11' E 024°06'0 0.0
2018-Jun-20 04:02N 38°11' E 024°06'110.7
2018-Jun-20 03:56N 38°11' E 024°08'1 0.1
2018-Jun-19 15:02N 38°11' E 024°06'110.6
2018-Jun-19 14:58N 38°11' E 024°07'1 1.5
2018-Jun-19 14:03N 38°11' E 024°09'2 1.8
2018-Jun-19 13:00N 38°11' E 024°07'0 0.1
2018-Jun-19 11:01N 38°11' E 024°06'210.7
2018-Jun-19 10:49N 38°11' E 024°09'2 0.1
2018-Jun-18 08:59N 38°11' E 024°07'5 6.2
2018-Jun-18 08:15N 38°11' E 024°12'5 3.3
2018-Jun-18 06:48N 38°11' E 024°06'0 0.0
2018-Jun-18 04:03N 38°11' E 024°06'110.4
2018-Jun-18 03:57N 38°11' E 024°08'1 0.1
2018-Jun-17 18:46N 38°11' E 024°07'0 0.1
2018-Jun-17 16:47N 38°11' E 024°06'2 1.3
2018-Jun-17 15:16N 38°11' E 024°09'0 0.3
2018-Jun-17 14:17N 38°11' E 024°09'1 0.5
2018-Jun-17 11:53N 38°11' E 024°08'1 0.0
2018-Jun-16 08:55N 38°11' E 024°07'0 0.0
2018-Jun-16 06:44N 38°11' E 024°07'510.4
2018-Jun-16 06:18N 38°11' E 024°12'5 2.3
2018-Jun-16 04:17N 38°11' E 024°06'1 0.1
2018-Jun-15 17:16N 38°10' E 024°07'4 9.5
2018-Jun-15 16:50N 38°11' E 024°12'2 4.9
2018-Jun-15 16:20N 38°11' E 024°09'2 2.1
2018-Jun-15 15:09N 38°11' E 024°06'2 9.6
2018-Jun-15 14:54N 38°11' E 024°09'2 1.0
2018-Jun-15 13:03N 38°10' E 024°07'2 2.1
2018-Jun-15 12:04N 38°11' E 024°09'110.6
2018-Jun-15 11:59N 38°11' E 024°08'1 1.2
2018-Jun-15 11:02N 38°10' E 024°07'0 0.0
2018-Jun-14 08:59N 38°11' E 024°07'  
Track history (hours):
 
Tides and Currents Weather Stations Pressure Air Temp Water Temp Dewpoint Dewpoint Depression Visibility Wind Speed Wind Dir Waves Ship Positions

Dimitris

Last reported at 2018-Jun-24 06:46 UTC. Time now 2018-Jun-24 09:19 UTC.
Position N 38°11' E 024°07'.

Length 76 m; draft 2.4 m.

Type: Passenger vessel. MMSI: 239710200.

Date/timePositionNaut miles runAvg speedWind from/ knotsBaromVisibWave heightAir tempDewpointWater temp
2018-Jun-24 06:46N 38°11' E 024°07'410.4
2018-Jun-24 06:20N 38°11' E 024°12'5 2.6
2018-Jun-24 04:32N 38°11' E 024°06'110.7
2018-Jun-24 04:26N 38°11' E 024°08'0 0.0
2018-Jun-23 17:25N 38°11' E 024°08'1 0.4
2018-Jun-23 15:14N 38°11' E 024°06'0 0.0
2018-Jun-22 12:16N 38°11' E 024°06'1 0.5
2018-Jun-22 10:09N 38°11' E 024°08'1 1.0
2018-Jun-22 09:00N 38°11' E 024°06'2 1.4
2018-Jun-22 07:56N 38°11' E 024°08'1 1.2
2018-Jun-22 06:46N 38°11' E 024°06'0 0.1
2018-Jun-22 04:01N 38°11' E 024°07'011.3
2018-Jun-22 04:00N 38°11' E 024°07'1 0.1
2018-Jun-21 17:53N 38°11' E 024°08'1 1.1
2018-Jun-21 17:00N 38°11' E 024°07'1 0.8
2018-Jun-21 15:56N 38°11' E 024°08'0 0.2
2018-Jun-21 14:56N 38°11' E 024°07'1 0.4
2018-Jun-21 13:00N 38°11' E 024°07'0 0.1
2018-Jun-21 10:59N 38°11' E 024°07'1 0.0
2018-Jun-20 08:57N 38°11' E 024°07'4 5.4
2018-Jun-20 08:14N 38°11' E 024°12'410.0
2018-Jun-20 07:51N 38°11' E 024°08'1 0.8
2018-Jun-20 06:45N 38°11' E 024°06'0 0.0
2018-Jun-20 04:02N 38°11' E 024°06'110.7
2018-Jun-20 03:56N 38°11' E 024°08'1 0.1
2018-Jun-19 15:02N 38°11' E 024°06'110.6
2018-Jun-19 14:58N 38°11' E 024°07'1 1.5
2018-Jun-19 14:03N 38°11' E 024°09'2 1.8
2018-Jun-19 13:00N 38°11' E 024°07'0 0.1
2018-Jun-19 11:01N 38°11' E 024°06'210.7
2018-Jun-19 10:49N 38°11' E 024°09'2 0.1
2018-Jun-18 08:59N 38°11' E 024°07'5 6.2
2018-Jun-18 08:15N 38°11' E 024°12'5 3.3
2018-Jun-18 06:48N 38°11' E 024°06'0 0.0
2018-Jun-18 04:03N 38°11' E 024°06'110.4
2018-Jun-18 03:57N 38°11' E 024°08'1 0.1
2018-Jun-17 18:46N 38°11' E 024°07'0 0.1
2018-Jun-17 16:47N 38°11' E 024°06'2 1.3
2018-Jun-17 15:16N 38°11' E 024°09'0 0.3
2018-Jun-17 14:17N 38°11' E 024°09'1 0.5
2018-Jun-17 11:53N 38°11' E 024°08'1 0.0
2018-Jun-16 08:55N 38°11' E 024°07'0 0.0
2018-Jun-16 06:44N 38°11' E 024°07'510.4
2018-Jun-16 06:18N 38°11' E 024°12'5 2.3
2018-Jun-16 04:17N 38°11' E 024°06'1 0.1
2018-Jun-15 17:16N 38°10' E 024°07'4 9.5
2018-Jun-15 16:50N 38°11' E 024°12'2 4.9
2018-Jun-15 16:20N 38°11' E 024°09'2 2.1
2018-Jun-15 15:09N 38°11' E 024°06'2 9.6
2018-Jun-15 14:54N 38°11' E 024°09'2 1.0
2018-Jun-15 13:03N 38°10' E 024°07'2 2.1
2018-Jun-15 12:04N 38°11' E 024°09'110.6
2018-Jun-15 11:59N 38°11' E 024°08'1 1.2
2018-Jun-15 11:02N 38°10' E 024°07'0 0.0
2018-Jun-14 08:59N 38°11' E 024°07'  

Dump ship's entire track history